Paso Robles, CA (93446)

1:04 PM PDT on August 30, 2014 (GMT -0700)
Montebello Oaks | Change Station
CLOSE
Current Station
Personal Weather Station
Location: Paso Robles, CA
Elevation: 869 ft
Nearby Weather Stations

Elev 869 ft 35.64 °N, 120.67 °W | Updated 9 minutes ago

Clear
Clear
94.9 °F
Feels Like 91 °F
N
6.0
Wind Variable Wind from NNE
Gusts 9.0 mph

Today
High -- | Low -- °F
--% Chance of Precip.
Yesterday
High -- | Low -- °F
Precip. -- in
6:33 AM 7:32 PM
Waxing Crescent, 24% visible
Pressure 29.84 in
Visibility 10.0 miles
Clouds Clear
Heat Index 91 °F
Dew Point 40 °F
Humidity 15%
Rainfall 0.00 in
Snow Depth Not available.
UV 10 out of 12
Pollen 9.90 out of 12
Air Quality Not available.
Flu Activity Not available.
METAR KPRB 301953Z AUTO 30010KT 10SM CLR 36/01 A2987 RMK AO2 SLP105 T03610006

More Conditions Fewer Conditions

Pressure 29.84 in
Visibility 10.0 miles
Clouds Clear
Heat Index 91 °F
Dew Point 40 °F
Humidity 15%
Rainfall 0.00 in
Snow Depth Not available.
UV 10 out of 12
Pollen 9.90 out of 12
Air Quality Not available.
Flu Activity Not available.
METAR KPRB 301953Z AUTO 30010KT 10SM CLR 36/01 A2987 RMK AO2 SLP105 T03610006

More Conditions Fewer Conditions

10-Day Weather Forecast

Almanac

Astronomy

Aug. 30, 2014 Rise Set
Actual Time 6:33 AM PDT 7:32 PM PDT
Civil Twilight 6:07 AM PDT 7:58 PM PDT
Nautical Twilight 5:36 AM PDT 8:29 PM PDT
Astronomical Twilight 5:04 AM PDT 9:01 PM PDT
Moon 11:14 AM PDT 10:21 PM PDT
Length of Visible Light 13h 51m
Length of Day
12h 59m
Tomorrow will be 2m 8s shorter.
Waxing Crescent, 24% of the Moon is Illuminated
Today
Waxing Crescent
Sep 2
First Quarter
Sep 8
Full
Sep 15
Last Quarter
Sep 24
New

Today's Extremes

State Highs State Lows

Community

WunderPhotos

Upload Photos

1,748,620 photos uploaded!

WunderBlogs® & News

Nearby

Snow Depth

Station Depth Elevation
Leavitt Meadows 1 in 7200 ft
Summit Meadow 0 in 9122 ft
Monitor Pass 0 in 8350 ft
Hagan's Meadow 0 in 8000 ft
Rubicon #2 0 in 7500 ft

Earthquake Activity

City Distance Mag. Time & Date
Malibu, California 158 miles 2.5 8:11 AM PDT
2014-08-30
Ridgemark, California 81 miles 3.4 4:32 PM PDT
2014-08-29
Ridgemark, California 81 miles 3.0 2:44 PM PDT
2014-08-29
Orange Cove, California 104 miles 2.5 7:48 AM PDT
2014-08-29
Minimum magnitude displayed is 2.5.

Coastal Water Temperatures

Place Temperature
No Stations Reporting

Nearby Weather Stations